createdAt,value
2018-07-15T00:00:39.584Z,2.20
2018-07-15T00:03:09.031Z,2.17
2018-07-15T00:05:38.519Z,2.20
2018-07-15T00:08:07.258Z,2.27
2018-07-15T00:10:42.585Z,2.00
2018-07-15T00:13:11.184Z,2.90
2018-07-15T00:15:39.812Z,2.57
2018-07-15T00:18:10.899Z,2.43
2018-07-15T00:20:39.495Z,2.50
2018-07-15T00:23:11.939Z,2.60
2018-07-15T00:25:40.549Z,2.30
2018-07-15T00:28:10.957Z,2.13
2018-07-15T00:30:39.567Z,2.70
2018-07-15T00:33:08.784Z,2.50
2018-07-15T00:35:37.440Z,2.60
2018-07-15T00:38:06.866Z,2.43
2018-07-15T00:40:35.368Z,2.60
2018-07-15T00:43:04.101Z,2.97
2018-07-15T00:45:33.310Z,2.50
2018-07-15T00:48:02.669Z,2.97
2018-07-15T00:50:33.004Z,3.37
2018-07-15T00:53:01.881Z,3.03
2018-07-15T00:55:30.578Z,3.23
2018-07-15T00:57:59.066Z,3.00
2018-07-15T01:00:32.865Z,3.00
2018-07-15T01:03:01.707Z,3.13
2018-07-15T01:05:30.230Z,2.97
2018-07-15T01:07:58.803Z,3.07
2018-07-15T01:10:27.486Z,2.60
2018-07-15T01:12:55.995Z,3.53
2018-07-15T01:15:24.672Z,2.83
2018-07-15T01:17:53.207Z,3.13
2018-07-15T01:20:23.016Z,3.20
2018-07-15T01:22:51.712Z,2.87
2018-07-15T01:25:20.596Z,2.90
2018-07-15T01:27:50.240Z,3.10
2018-07-15T01:30:18.748Z,3.17
2018-07-15T01:32:47.941Z,2.77
2018-07-15T01:35:16.527Z,3.17
2018-07-15T01:37:45.796Z,3.30
2018-07-15T01:40:14.357Z,2.90
2018-07-15T01:42:42.994Z,2.70
2018-07-15T01:45:12.240Z,2.70
2018-07-15T01:47:40.742Z,2.80
2018-07-15T01:50:09.493Z,2.80
2018-07-15T01:52:38.638Z,3.10
2018-07-15T01:55:07.189Z,2.80
2018-07-15T01:57:35.694Z,2.70
2018-07-15T02:00:04.595Z,3.00
2018-07-15T02:02:33.232Z,2.80
2018-07-15T02:05:01.728Z,2.90
2018-07-15T02:07:30.206Z,3.40
2018-07-15T02:09:59.090Z,3.00
2018-07-15T02:12:27.696Z,3.17
2018-07-15T02:14:56.196Z,2.80
2018-07-15T02:17:24.727Z,3.17
2018-07-15T02:19:53.393Z,3.40
2018-07-15T02:22:21.884Z,3.33
2018-07-15T02:24:50.596Z,2.93
2018-07-15T02:27:19.188Z,3.00
2018-07-15T02:29:47.732Z,3.20
2018-07-15T02:32:16.843Z,2.97
2018-07-15T02:34:46.435Z,3.00
2018-07-15T02:37:14.986Z,3.00
2018-07-15T02:39:43.496Z,4.07
2018-07-15T02:42:12.289Z,3.33
2018-07-15T02:44:40.847Z,3.17
2018-07-15T02:47:09.341Z,3.20
2018-07-15T02:49:38.810Z,3.00
2018-07-15T02:52:07.452Z,3.17
2018-07-15T02:54:36.465Z,3.10
2018-07-15T02:57:05.569Z,2.90
2018-07-15T02:59:34.129Z,3.23
2018-07-15T03:02:03.376Z,3.20
2018-07-15T03:04:32.950Z,3.00
2018-07-15T03:07:02.637Z,3.27
2018-07-15T03:09:31.714Z,3.23
2018-07-15T03:12:00.467Z,3.13
2018-07-15T03:14:28.951Z,3.20
2018-07-15T03:16:58.113Z,2.80
2018-07-15T03:19:27.147Z,3.03
2018-07-15T03:21:56.109Z,3.53
2018-07-15T03:24:24.893Z,3.57
2018-07-15T03:26:53.582Z,3.00
2018-07-15T03:29:22.106Z,3.60
2018-07-15T03:31:50.901Z,3.73
2018-07-15T03:34:20.520Z,3.10
2018-07-15T03:36:49.491Z,3.47
2018-07-15T03:39:19.020Z,3.50
2018-07-15T03:41:47.574Z,3.30
2018-07-15T03:44:16.880Z,3.30
2018-07-15T03:46:50.610Z,2.93
2018-07-15T03:49:19.161Z,3.47
2018-07-15T03:51:48.188Z,3.37
2018-07-15T03:54:17.363Z,3.40
2018-07-15T03:56:46.981Z,3.40
2018-07-15T03:59:17.593Z,3.40
2018-07-15T04:01:46.698Z,3.27
2018-07-15T04:04:15.895Z,3.37
2018-07-15T04:06:45.210Z,2.90
2018-07-15T04:09:15.136Z,3.10
2018-07-15T04:11:44.155Z,2.93
2018-07-15T04:14:13.425Z,3.53
2018-07-15T04:16:48.964Z,4.13
2018-07-15T04:19:18.649Z,4.00
2018-07-15T04:21:47.290Z,3.67
2018-07-15T04:24:17.051Z,4.17
2018-07-15T04:26:46.160Z,4.17
2018-07-15T04:29:14.631Z,4.00
2018-07-15T04:31:43.170Z,3.70
2018-07-15T04:34:11.716Z,3.77
2018-07-15T04:36:40.543Z,3.53
2018-07-15T04:39:10.033Z,3.70
2018-07-15T04:41:38.568Z,3.90
2018-07-15T04:44:07.666Z,4.20
2018-07-15T04:46:37.135Z,4.10
2018-07-15T04:49:05.715Z,5.07
2018-07-15T04:51:34.535Z,4.53
2018-07-15T04:54:07.324Z,4.50
2018-07-15T04:56:36.225Z,4.50
2018-07-15T04:59:06.546Z,4.27
2018-07-15T05:01:39.057Z,4.47
2018-07-15T05:04:07.528Z,3.50
2018-07-15T05:06:36.136Z,4.33
2018-07-15T05:09:06.223Z,4.03
2018-07-15T05:11:35.724Z,4.53
2018-07-15T05:14:05.688Z,4.73
2018-07-15T05:16:34.356Z,4.53
2018-07-15T05:19:03.314Z,5.23
2018-07-15T05:21:32.116Z,4.50
2018-07-15T05:24:02.526Z,5.30
2018-07-15T05:26:32.578Z,4.47
2018-07-15T05:29:01.209Z,5.13
2018-07-15T05:31:29.748Z,4.37
2018-07-15T05:33:58.379Z,4.73
2018-07-15T05:36:27.217Z,4.90
2018-07-15T05:38:55.792Z,5.03
2018-07-15T05:41:27.305Z,5.07
2018-07-15T05:43:56.292Z,4.93
2018-07-15T05:46:25.124Z,4.77
2018-07-15T05:48:54.013Z,4.70
2018-07-15T05:51:23.853Z,3.97
2018-07-15T05:53:52.705Z,4.10
2018-07-15T05:56:21.525Z,4.07
2018-07-15T05:58:51.184Z,3.90
2018-07-15T06:01:20.149Z,4.20
2018-07-15T06:03:49.021Z,4.03
2018-07-15T06:06:17.494Z,3.63
2018-07-15T06:08:46.066Z,3.63
2018-07-15T06:11:14.833Z,3.63
2018-07-15T06:13:44.677Z,3.40
2018-07-15T06:16:15.644Z,3.50
2018-07-15T06:18:44.878Z,3.23
2018-07-15T06:21:14.517Z,2.60
2018-07-15T06:23:43.707Z,3.20
2018-07-15T06:26:13.237Z,3.00
2018-07-15T06:28:42.510Z,3.70
2018-07-15T06:31:11.756Z,3.17
2018-07-15T06:33:40.308Z,3.67
2018-07-15T06:36:09.193Z,3.10
2018-07-15T06:38:40.017Z,3.10
2018-07-15T06:41:08.676Z,3.30
2018-07-15T06:43:38.029Z,3.00
2018-07-15T06:46:07.204Z,4.17
2018-07-15T06:48:35.819Z,3.20
2018-07-15T06:51:04.395Z,3.00
2018-07-15T06:53:33.704Z,3.63
2018-07-15T06:56:04.214Z,3.63
2018-07-15T06:58:32.757Z,3.23
2018-07-15T07:01:01.374Z,3.33
2018-07-15T07:03:29.775Z,3.27
2018-07-15T07:05:58.657Z,3.20
2018-07-15T07:08:29.069Z,3.03
2018-07-15T07:10:58.532Z,3.43
2018-07-15T07:13:27.551Z,2.63
2018-07-15T07:15:57.093Z,2.97
2018-07-15T07:18:26.334Z,2.57
2018-07-15T07:20:56.180Z,4.03
2018-07-15T07:23:25.024Z,2.73
2018-07-15T07:25:54.030Z,2.60
2018-07-15T07:28:23.382Z,2.90
2018-07-15T07:30:52.963Z,2.40
2018-07-15T07:33:22.037Z,2.20
2018-07-15T07:35:51.539Z,3.07
2018-07-15T07:38:20.782Z,2.80
2018-07-15T07:40:50.218Z,2.50
2018-07-15T07:43:20.151Z,2.90
2018-07-15T07:45:49.493Z,3.23
2018-07-15T07:48:18.356Z,2.30
2018-07-15T07:50:48.372Z,2.40
2018-07-15T07:53:17.908Z,2.33
2018-07-15T07:55:47.349Z,2.63
2018-07-15T07:58:16.947Z,2.80
2018-07-15T08:00:45.560Z,3.43
2018-07-15T08:03:14.393Z,2.40
2018-07-15T08:05:43.357Z,2.33
2018-07-15T08:08:12.229Z,2.50
2018-07-15T08:10:41.229Z,2.60
2018-07-15T08:13:11.815Z,2.77
2018-07-15T08:15:40.776Z,2.20
2018-07-15T08:18:10.754Z,2.23
2018-07-15T08:20:40.307Z,2.23
2018-07-15T08:23:10.401Z,2.33
2018-07-15T08:25:39.284Z,2.20
2018-07-15T08:28:08.662Z,2.00
2018-07-15T08:30:48.800Z,2.00
2018-07-15T08:33:17.550Z,2.00
2018-07-15T08:35:46.948Z,2.17
2018-07-15T08:38:15.591Z,1.60
2018-07-15T08:40:44.950Z,2.15
2018-07-15T08:43:13.435Z,1.80
2018-07-15T08:45:42.593Z,1.77
2018-07-15T08:48:11.284Z,2.07
2018-07-15T08:50:42.204Z,1.97
2018-07-15T08:53:11.497Z,1.73
2018-07-15T08:55:40.867Z,2.10
2018-07-15T08:58:09.531Z,2.03
2018-07-15T09:00:38.046Z,1.90
2018-07-15T09:03:07.297Z,2.03
2018-07-15T09:05:35.949Z,1.93
2018-07-15T09:08:05.495Z,1.80
2018-07-15T09:10:34.970Z,2.02
2018-07-15T09:13:04.617Z,1.80
2018-07-15T09:15:33.153Z,1.83
2018-07-15T09:18:01.848Z,1.60
2018-07-15T09:20:30.473Z,1.70
2018-07-15T09:22:59.111Z,1.70
2018-07-15T09:25:27.784Z,2.03
2018-07-15T09:27:56.443Z,1.50
2018-07-15T09:30:27.111Z,1.80
2018-07-15T09:32:55.824Z,2.00
2018-07-15T09:35:24.682Z,1.40
2018-07-15T09:37:53.546Z,1.57
2018-07-15T09:40:22.196Z,1.80
2018-07-15T09:42:50.906Z,1.47
2018-07-15T09:45:19.727Z,1.45
2018-07-15T09:47:48.364Z,1.80
2018-07-15T09:50:17.119Z,1.80
2018-07-15T09:52:46.496Z,2.47
2018-07-15T09:55:15.095Z,5.70
2018-07-15T09:57:43.712Z,2.20
2018-07-15T10:00:18.136Z,1.75
2018-07-15T10:02:46.798Z,1.50
2018-07-15T10:05:16.677Z,1.57
2018-07-15T10:07:45.537Z,1.50
2018-07-15T10:10:14.847Z,1.65
2018-07-15T10:12:45.570Z,1.80
2018-07-15T10:15:16.275Z,1.75
2018-07-15T10:17:44.746Z,1.67
2018-07-15T10:20:14.971Z,2.70
2018-07-15T10:22:43.834Z,2.05
2018-07-15T10:25:12.732Z,5.95
2018-07-15T10:27:41.577Z,7.05
2018-07-15T10:30:11.659Z,3.08
2018-07-15T10:32:40.467Z,1.75
2018-07-15T10:35:17.038Z,1.95
2018-07-15T10:37:45.996Z,1.60
2018-07-15T10:40:14.857Z,1.77
2018-07-15T10:42:43.508Z,2.15
2018-07-15T10:45:12.462Z,1.60
2018-07-15T10:47:41.270Z,2.30
2018-07-15T10:50:11.203Z,1.70
2018-07-15T10:52:40.344Z,1.60
2018-07-15T10:55:10.268Z,1.40
2018-07-15T10:57:38.832Z,1.47
2018-07-15T11:00:08.187Z,1.52
2018-07-15T11:02:37.591Z,1.85
2018-07-15T11:05:07.075Z,1.85
2018-07-15T11:07:35.818Z,1.72
2018-07-15T11:10:05.287Z,1.60
2018-07-15T11:12:34.055Z,1.57
2018-07-15T11:15:03.739Z,1.62
2018-07-15T11:17:32.818Z,1.50
2018-07-15T11:20:01.529Z,1.50
2018-07-15T11:22:30.280Z,1.15
2018-07-15T11:24:58.905Z,2.10
2018-07-15T11:27:27.591Z,0.98
2018-07-15T11:29:56.223Z,1.15
2018-07-15T11:32:24.736Z,1.37
2018-07-15T11:34:54.452Z,1.42
2018-07-15T11:37:23.638Z,2.12
2018-07-15T11:39:53.153Z,1.67
2018-07-15T11:42:21.835Z,2.47
2018-07-15T11:44:50.560Z,1.60
2018-07-15T11:47:19.222Z,1.32
2018-07-15T11:49:48.152Z,1.50
2018-07-15T11:52:16.657Z,1.35
2018-07-15T11:54:46.690Z,1.50
2018-07-15T11:57:16.496Z,1.50
2018-07-15T11:59:45.238Z,1.50
2018-07-15T12:02:14.855Z,1.40
2018-07-15T12:04:43.462Z,1.30
2018-07-15T12:07:12.509Z,1.75
2018-07-15T12:09:41.629Z,1.60
2018-07-15T12:12:10.388Z,1.72
2018-07-15T12:14:39.206Z,1.50
2018-07-15T12:17:07.969Z,1.60
2018-07-15T12:19:38.097Z,1.72
2018-07-15T12:22:07.862Z,1.40
2018-07-15T12:24:36.470Z,1.27
2018-07-15T12:27:07.309Z,1.50
2018-07-15T12:29:39.775Z,1.92
2018-07-15T12:32:08.866Z,1.70
2018-07-15T12:34:38.777Z,1.25
2018-07-15T12:37:07.364Z,1.50
2018-07-15T12:41:05.776Z,1.50
2018-07-15T12:43:34.350Z,1.17
2018-07-15T12:46:04.786Z,1.40
2018-07-15T12:48:33.631Z,1.20
2018-07-15T12:51:02.237Z,1.40
2018-07-15T12:53:32.267Z,1.40
2018-07-15T12:56:01.502Z,1.50
2018-07-15T12:58:30.303Z,1.30
2018-07-15T13:00:59.129Z,1.25
2018-07-15T13:03:28.556Z,1.15
2018-07-15T13:05:57.852Z,1.30
2018-07-15T13:08:27.645Z,2.33
2018-07-15T13:10:57.236Z,1.42
2018-07-15T13:13:26.194Z,1.37
2018-07-15T13:15:55.273Z,1.37
2018-07-15T13:18:24.171Z,1.17
2018-07-15T13:20:53.328Z,1.27
2018-07-15T13:23:23.210Z,1.40
2018-07-15T13:25:52.757Z,1.55
2018-07-15T13:28:22.847Z,1.57
2018-07-15T13:30:52.642Z,1.60
2018-07-15T13:33:22.378Z,1.50
2018-07-15T13:35:52.152Z,1.47
2018-07-15T13:38:21.945Z,1.10
2018-07-15T13:40:50.575Z,1.20
2018-07-15T13:43:19.665Z,1.00
2018-07-15T13:45:49.617Z,1.00
2018-07-15T13:48:18.310Z,1.27
2018-07-15T13:50:47.143Z,1.17
2018-07-15T13:53:15.775Z,1.05
2018-07-15T13:55:45.183Z,1.20
2018-07-15T13:58:13.769Z,1.20
2018-07-15T14:00:42.465Z,1.20
2018-07-15T14:03:11.126Z,1.20
2018-07-15T14:05:40.223Z,1.30
2018-07-15T14:08:09.576Z,1.20
2018-07-15T14:10:38.218Z,1.60
2018-07-15T14:13:07.513Z,1.37
2018-07-15T14:15:37.249Z,1.50
2018-07-15T14:18:06.529Z,1.40
2018-07-15T14:20:35.427Z,1.25
2018-07-15T14:23:04.026Z,1.35
2018-07-15T14:25:32.821Z,1.72
2018-07-15T14:28:02.176Z,1.20
2018-07-15T14:30:30.800Z,1.40
2018-07-15T14:32:59.534Z,1.40
2018-07-15T14:35:28.056Z,1.30
2018-07-15T14:37:57.308Z,1.40
2018-07-15T14:40:25.933Z,1.65
2018-07-15T14:42:56.047Z,1.62
2018-07-15T14:45:25.117Z,1.65
2018-07-15T14:47:53.689Z,1.50
2018-07-15T14:50:22.376Z,1.62
2018-07-15T14:52:51.258Z,1.20
2018-07-15T14:55:19.753Z,1.47
2018-07-15T14:57:48.447Z,1.30
2018-07-15T15:00:17.881Z,1.40
2018-07-15T15:02:46.488Z,1.40
2018-07-15T15:05:15.118Z,1.40
2018-07-15T15:07:43.775Z,1.60
2018-07-15T15:10:12.444Z,1.62
2018-07-15T15:12:41.158Z,1.57
2018-07-15T15:15:09.810Z,1.40
2018-07-15T15:17:38.516Z,1.50
2018-07-15T15:20:07.686Z,1.67
2018-07-15T15:22:37.313Z,1.40
2018-07-15T15:25:05.978Z,1.07
2018-07-15T15:27:35.242Z,1.25
2018-07-15T15:30:04.247Z,1.30
2018-07-15T15:32:33.137Z,1.40
2018-07-15T15:35:01.683Z,1.57
2018-07-15T15:37:30.223Z,1.52
2018-07-15T15:39:58.827Z,1.20
2018-07-15T15:42:27.516Z,1.15
2018-07-15T15:44:56.099Z,1.80
2018-07-15T15:47:24.737Z,1.60
2018-07-15T15:49:54.055Z,1.30
2018-07-15T15:52:25.202Z,1.50
2018-07-15T15:54:54.721Z,1.52
2018-07-15T15:57:23.383Z,1.47
2018-07-15T15:59:51.892Z,1.37
2018-07-15T16:02:20.453Z,1.50
2018-07-15T16:04:49.977Z,1.45
2018-07-15T16:07:18.568Z,1.40
2018-07-15T16:09:47.133Z,1.32
2018-07-15T16:12:15.769Z,1.30
2018-07-15T16:14:44.608Z,1.37
2018-07-15T16:17:13.223Z,1.27
2018-07-15T16:19:42.830Z,1.60
2018-07-15T16:22:12.323Z,1.45
2018-07-15T16:24:40.998Z,1.40
2018-07-15T16:27:10.095Z,1.45
2018-07-15T16:29:39.227Z,1.10
2018-07-15T16:32:08.009Z,1.82
2018-07-15T16:34:36.660Z,1.20
2018-07-15T16:37:06.171Z,1.40
2018-07-15T16:39:35.879Z,1.45
2018-07-15T16:42:05.698Z,1.20
2018-07-15T16:44:36.554Z,1.25
2018-07-15T16:47:05.576Z,1.07
2018-07-15T16:49:34.543Z,1.37
2018-07-15T16:52:03.149Z,1.30
2018-07-15T16:54:31.942Z,1.47
2018-07-15T16:57:01.829Z,1.45
2018-07-15T16:59:30.577Z,1.72
2018-07-15T17:02:00.124Z,1.70
2018-07-15T17:04:28.996Z,1.62
2018-07-15T17:06:57.684Z,1.52
2018-07-15T17:09:26.339Z,1.62
2018-07-15T17:11:55.176Z,1.65
2018-07-15T17:14:24.648Z,1.32
2018-07-15T17:16:53.295Z,1.50
2018-07-15T17:19:23.011Z,1.80
2018-07-15T17:21:51.692Z,1.42
2018-07-15T17:24:20.775Z,1.55
2018-07-15T17:26:49.569Z,1.75
2018-07-15T17:29:19.323Z,1.60
2018-07-15T17:31:48.086Z,1.32
2018-07-15T17:34:16.742Z,1.60
2018-07-15T17:36:46.141Z,1.65
2018-07-15T17:39:15.707Z,1.55
2018-07-15T17:41:45.679Z,1.40
2018-07-15T17:44:14.510Z,1.95
2018-07-15T17:46:43.517Z,1.60
2018-07-15T17:49:12.636Z,1.42
2018-07-15T17:51:42.032Z,2.10
2018-07-15T17:54:11.899Z,1.40
2018-07-15T17:56:40.690Z,1.40
2018-07-15T17:59:10.464Z,1.70
2018-07-15T18:01:39.137Z,1.62
2018-07-15T18:04:08.123Z,1.35
2018-07-15T18:06:36.793Z,1.60
2018-07-15T18:09:06.368Z,1.70
2018-07-15T18:11:38.099Z,1.65
2018-07-15T18:14:07.040Z,1.50
2018-07-15T18:16:37.078Z,1.40
2018-07-15T18:19:06.541Z,2.20
2018-07-15T18:21:35.194Z,1.90
2018-07-15T18:24:03.930Z,2.25
2018-07-15T18:26:33.365Z,1.60
2018-07-15T18:29:02.298Z,3.95
2018-07-15T18:31:31.049Z,1.40
2018-07-15T18:33:59.845Z,5.70
2018-07-15T18:36:28.798Z,3.95
2018-07-15T18:38:58.092Z,1.35
2018-07-15T18:41:26.597Z,1.45
2018-07-15T18:43:55.365Z,1.87
2018-07-15T18:46:23.911Z,1.90
2018-07-15T18:48:52.518Z,2.02
2018-07-15T18:51:21.884Z,2.45
2018-07-15T18:53:50.728Z,1.85
2018-07-15T18:56:20.319Z,1.27
2018-07-15T18:58:48.876Z,2.45
2018-07-15T19:01:17.416Z,3.02
2018-07-15T19:03:47.952Z,1.80
2018-07-15T19:06:16.831Z,1.82
2018-07-15T19:08:50.194Z,2.27
2018-07-15T19:11:19.457Z,2.08
2018-07-15T19:13:48.457Z,1.72
2018-07-15T19:16:17.921Z,1.42
2018-07-15T19:18:48.062Z,1.42
2018-07-15T19:21:17.060Z,1.80
2018-07-15T19:23:46.190Z,1.70
2018-07-15T19:26:14.852Z,1.70
2018-07-15T19:28:43.918Z,1.52
2018-07-15T19:31:13.339Z,2.10
2018-07-15T19:33:42.651Z,1.70
2018-07-15T19:36:11.655Z,1.42
2018-07-15T19:38:40.600Z,2.80
2018-07-15T19:41:09.317Z,1.47
2018-07-15T19:43:38.370Z,2.15
2018-07-15T19:46:07.105Z,2.08
2018-07-15T19:48:35.686Z,1.62
2018-07-15T19:51:04.270Z,1.62
2018-07-15T19:53:34.125Z,1.82
2018-07-15T19:56:04.128Z,1.80
2018-07-15T19:58:34.264Z,1.60
2018-07-15T20:01:03.080Z,1.80
2018-07-15T20:03:31.682Z,1.82
2018-07-15T20:06:00.806Z,2.02
2018-07-15T20:08:29.761Z,2.08
2018-07-15T20:10:58.485Z,2.00
2018-07-15T20:13:27.696Z,2.00
2018-07-15T20:15:56.262Z,1.85
2018-07-15T20:18:24.819Z,2.60
2018-07-15T20:20:54.436Z,2.00
2018-07-15T20:23:23.220Z,2.10
2018-07-15T20:25:52.077Z,2.10
2018-07-15T20:28:20.677Z,2.30
2018-07-15T20:30:50.006Z,2.42
2018-07-15T20:33:18.539Z,2.60
2018-07-15T20:35:48.016Z,2.40
2018-07-15T20:38:16.760Z,2.40
2018-07-15T20:40:46.063Z,2.50
2018-07-15T20:44:44.128Z,2.45
2018-07-15T20:47:12.717Z,2.60
2018-07-15T20:49:41.541Z,2.10
2018-07-15T20:52:10.801Z,2.45
2018-07-15T20:54:40.026Z,2.72
2018-07-15T20:57:11.491Z,2.52
2018-07-15T20:59:40.265Z,2.40
2018-07-15T21:02:10.668Z,2.58
2018-07-15T21:04:40.454Z,2.80
2018-07-15T21:07:09.067Z,2.70
2018-07-15T21:09:37.589Z,2.20
2018-07-15T21:12:07.115Z,2.50
2018-07-15T21:14:36.529Z,2.40
2018-07-15T21:17:05.312Z,3.25
2018-07-15T21:19:34.078Z,2.10
2018-07-15T21:22:03.138Z,2.45
2018-07-15T21:24:32.529Z,2.80
2018-07-15T21:27:01.166Z,2.65
2018-07-15T21:29:29.735Z,2.50
2018-07-15T21:32:00.291Z,2.37
2018-07-15T21:34:29.698Z,2.47
2018-07-15T21:36:59.232Z,2.50
2018-07-15T21:39:28.174Z,2.20
2018-07-15T21:41:56.660Z,2.72
2018-07-15T21:44:26.379Z,2.67
2018-07-15T21:46:55.869Z,2.55
2018-07-15T21:49:25.209Z,2.60
2018-07-15T21:51:54.080Z,2.35
2018-07-15T21:54:23.676Z,2.27
2018-07-15T21:56:52.112Z,2.45
2018-07-15T21:59:20.657Z,2.58
2018-07-15T22:01:49.390Z,2.80
2018-07-15T22:04:17.988Z,2.70
2018-07-15T22:06:57.924Z,2.80
2018-07-15T22:09:48.695Z,2.70
2018-07-15T22:12:17.279Z,2.80
2018-07-15T22:14:46.549Z,2.70
2018-07-15T22:17:16.675Z,3.33
2018-07-15T22:19:45.952Z,2.60
2018-07-15T22:22:15.856Z,2.90
2018-07-15T22:24:44.448Z,3.10
2018-07-15T22:27:14.074Z,2.90
2018-07-15T22:29:42.795Z,3.00
2018-07-15T22:32:12.561Z,3.10
2018-07-15T22:34:41.416Z,3.37
2018-07-15T22:37:12.918Z,3.27
2018-07-15T22:39:42.625Z,3.05
2018-07-15T22:42:11.368Z,3.12
2018-07-15T22:44:40.688Z,3.90
2018-07-15T22:47:10.186Z,3.30
2018-07-15T22:49:38.748Z,3.37
2018-07-15T22:52:08.357Z,3.20
2018-07-15T22:54:39.413Z,3.90
2018-07-15T22:57:10.397Z,3.20
2018-07-15T22:59:40.553Z,3.42
2018-07-15T23:02:10.594Z,3.22
2018-07-15T23:06:53.382Z,3.50
2018-07-15T23:09:21.989Z,3.87
2018-07-15T23:11:50.521Z,3.65
2018-07-15T23:14:19.098Z,3.90
2018-07-15T23:16:47.551Z,3.90
2018-07-15T23:19:16.081Z,3.77
2018-07-15T23:21:44.908Z,3.47
2018-07-15T23:24:14.087Z,4.12
2018-07-15T23:26:43.038Z,3.55
2018-07-15T23:29:11.562Z,3.42
2018-07-15T23:31:41.797Z,3.37
2018-07-15T23:34:10.460Z,3.92
2018-07-15T23:36:40.855Z,3.58
2018-07-15T23:39:09.377Z,3.17
2018-07-15T23:41:38.561Z,3.95
2018-07-15T23:44:08.003Z,3.70
2018-07-15T23:46:37.552Z,3.90
2018-07-15T23:49:07.541Z,3.92
2018-07-15T23:51:36.298Z,3.70
2018-07-15T23:54:05.048Z,3.70
2018-07-15T23:56:33.764Z,3.85
2018-07-15T23:59:03.795Z,3.83
